sensor_id;sensor_type;location;lat;lon;timestamp;P1;durP1;ratioP1;P2;durP2;ratioP2
37459;SDS011;23318;50.966;5.284;2023-04-15T00:01:06;8.98;;;3.40;;
37459;SDS011;23318;50.966;5.284;2023-04-15T00:03:32;11.40;;;3.80;;
37459;SDS011;23318;50.966;5.284;2023-04-15T00:05:58;8.38;;;3.55;;
37459;SDS011;23318;50.966;5.284;2023-04-15T00:08:24;10.07;;;3.60;;
37459;SDS011;23318;50.966;5.284;2023-04-15T00:10:50;5.50;;;3.60;;
37459;SDS011;23318;50.966;5.284;2023-04-15T00:13:15;7.70;;;3.65;;
37459;SDS011;23318;50.966;5.284;2023-04-15T00:15:41;6.13;;;3.63;;
37459;SDS011;23318;50.966;5.284;2023-04-15T00:18:07;10.50;;;3.83;;
37459;SDS011;23318;50.966;5.284;2023-04-15T00:20:33;7.85;;;3.55;;
37459;SDS011;23318;50.966;5.284;2023-04-15T00:22:59;9.48;;;3.83;;
37459;SDS011;23318;50.966;5.284;2023-04-15T00:25:26;14.88;;;4.43;;
37459;SDS011;23318;50.966;5.284;2023-04-15T00:27:53;13.20;;;3.92;;
37459;SDS011;23318;50.966;5.284;2023-04-15T00:30:18;7.82;;;3.95;;
37459;SDS011;23318;50.966;5.284;2023-04-15T00:32:44;9.77;;;4.32;;
37459;SDS011;23318;50.966;5.284;2023-04-15T00:35:10;11.25;;;3.95;;
37459;SDS011;23318;50.966;5.284;2023-04-15T00:37:36;6.20;;;3.80;;
37459;SDS011;23318;50.966;5.284;2023-04-15T00:40:02;12.65;;;4.32;;
37459;SDS011;23318;50.966;5.284;2023-04-15T00:42:30;8.73;;;4.10;;
37459;SDS011;23318;50.966;5.284;2023-04-15T00:44:56;10.25;;;4.00;;
37459;SDS011;23318;50.966;5.284;2023-04-15T00:47:22;11.32;;;3.80;;
37459;SDS011;23318;50.966;5.284;2023-04-15T00:49:47;7.35;;;3.80;;
37459;SDS011;23318;50.966;5.284;2023-04-15T00:52:13;8.75;;;4.40;;
37459;SDS011;23318;50.966;5.284;2023-04-15T00:54:39;12.02;;;4.25;;
37459;SDS011;23318;50.966;5.284;2023-04-15T00:57:05;10.98;;;4.60;;
37459;SDS011;23318;50.966;5.284;2023-04-15T00:59:32;8.93;;;4.15;;
37459;SDS011;23318;50.966;5.284;2023-04-15T01:01:59;14.05;;;5.05;;
37459;SDS011;23318;50.966;5.284;2023-04-15T01:04:25;10.95;;;4.25;;
37459;SDS011;23318;50.966;5.284;2023-04-15T01:06:51;9.05;;;3.65;;
37459;SDS011;23318;50.966;5.284;2023-04-15T01:09:17;8.68;;;4.07;;
37459;SDS011;23318;50.966;5.284;2023-04-15T01:11:42;9.25;;;3.63;;
37459;SDS011;23318;50.966;5.284;2023-04-15T01:14:08;7.13;;;3.70;;
37459;SDS011;23318;50.966;5.284;2023-04-15T01:16:35;11.07;;;4.13;;
37459;SDS011;23318;50.966;5.284;2023-04-15T01:19:04;7.80;;;3.72;;
37459;SDS011;23318;50.966;5.284;2023-04-15T01:21:35;9.00;;;4.30;;
37459;SDS011;23318;50.966;5.284;2023-04-15T01:24:07;11.55;;;4.10;;
37459;SDS011;23318;50.966;5.284;2023-04-15T01:26:38;8.93;;;4.25;;
37459;SDS011;23318;50.966;5.284;2023-04-15T01:29:04;8.50;;;3.45;;
37459;SDS011;23318;50.966;5.284;2023-04-15T01:31:30;9.45;;;3.78;;
37459;SDS011;23318;50.966;5.284;2023-04-15T01:33:57;7.35;;;4.28;;
37459;SDS011;23318;50.966;5.284;2023-04-15T01:36:23;6.63;;;3.55;;
37459;SDS011;23318;50.966;5.284;2023-04-15T01:38:49;7.80;;;3.55;;
37459;SDS011;23318;50.966;5.284;2023-04-15T01:41:15;8.88;;;3.88;;
37459;SDS011;23318;50.966;5.284;2023-04-15T01:43:45;6.65;;;3.40;;
37459;SDS011;23318;50.966;5.284;2023-04-15T01:46:11;7.47;;;3.17;;
37459;SDS011;23318;50.966;5.284;2023-04-15T01:48:36;6.85;;;3.22;;
37459;SDS011;23318;50.966;5.284;2023-04-15T01:51:02;13.32;;;3.35;;
37459;SDS011;23318;50.966;5.284;2023-04-15T01:53:28;5.35;;;3.05;;
37459;SDS011;23318;50.966;5.284;2023-04-15T01:55:54;10.88;;;3.70;;
37459;SDS011;23318;50.966;5.284;2023-04-15T01:58:19;9.13;;;3.67;;
37459;SDS011;23318;50.966;5.284;2023-04-15T02:00:46;6.60;;;3.40;;
37459;SDS011;23318;50.966;5.284;2023-04-15T02:03:12;7.93;;;3.00;;
37459;SDS011;23318;50.966;5.284;2023-04-15T02:05:37;11.15;;;3.42;;
37459;SDS011;23318;50.966;5.284;2023-04-15T02:08:03;6.45;;;3.17;;
37459;SDS011;23318;50.966;5.284;2023-04-15T02:10:29;17.90;;;4.15;;
37459;SDS011;23318;50.966;5.284;2023-04-15T02:12:55;10.60;;;4.07;;
37459;SDS011;23318;50.966;5.284;2023-04-15T02:15:20;8.75;;;3.38;;
37459;SDS011;23318;50.966;5.284;2023-04-15T02:17:46;10.25;;;3.78;;
37459;SDS011;23318;50.966;5.284;2023-04-15T02:20:15;6.13;;;3.63;;
37459;SDS011;23318;50.966;5.284;2023-04-15T02:22:42;8.73;;;3.83;;
37459;SDS011;23318;50.966;5.284;2023-04-15T02:25:07;9.23;;;3.15;;
37459;SDS011;23318;50.966;5.284;2023-04-15T02:27:36;6.53;;;3.70;;
37459;SDS011;23318;50.966;5.284;2023-04-15T02:30:02;7.15;;;3.47;;
37459;SDS011;23318;50.966;5.284;2023-04-15T02:32:28;7.38;;;3.30;;
37459;SDS011;23318;50.966;5.284;2023-04-15T02:34:54;6.00;;;3.50;;
37459;SDS011;23318;50.966;5.284;2023-04-15T02:37:19;7.57;;;3.35;;
37459;SDS011;23318;50.966;5.284;2023-04-15T02:39:45;8.50;;;3.50;;
37459;SDS011;23318;50.966;5.284;2023-04-15T02:42:11;9.02;;;3.42;;
37459;SDS011;23318;50.966;5.284;2023-04-15T02:44:37;10.07;;;3.85;;
37459;SDS011;23318;50.966;5.284;2023-04-15T02:47:03;10.93;;;3.55;;
37459;SDS011;23318;50.966;5.284;2023-04-15T02:49:31;6.13;;;3.17;;
37459;SDS011;23318;50.966;5.284;2023-04-15T02:51:56;7.50;;;3.42;;
37459;SDS011;23318;50.966;5.284;2023-04-15T02:54:24;5.07;;;3.20;;
37459;SDS011;23318;50.966;5.284;2023-04-15T02:56:52;6.53;;;3.17;;
37459;SDS011;23318;50.966;5.284;2023-04-15T02:59:20;7.28;;;3.53;;
37459;SDS011;23318;50.966;5.284;2023-04-15T03:01:46;6.85;;;3.75;;
37459;SDS011;23318;50.966;5.284;2023-04-15T03:04:11;9.70;;;3.50;;
37459;SDS011;23318;50.966;5.284;2023-04-15T03:06:38;6.22;;;3.35;;
37459;SDS011;23318;50.966;5.284;2023-04-15T03:09:04;5.43;;;3.22;;
37459;SDS011;23318;50.966;5.284;2023-04-15T03:11:29;8.70;;;3.00;;
37459;SDS011;23318;50.966;5.284;2023-04-15T03:13:55;9.07;;;3.20;;
37459;SDS011;23318;50.966;5.284;2023-04-15T03:16:22;10.02;;;3.58;;
37459;SDS011;23318;50.966;5.284;2023-04-15T03:18:48;8.88;;;3.25;;
37459;SDS011;23318;50.966;5.284;2023-04-15T03:21:14;8.45;;;3.55;;
37459;SDS011;23318;50.966;5.284;2023-04-15T03:23:40;7.70;;;3.33;;
37459;SDS011;23318;50.966;5.284;2023-04-15T03:26:05;8.85;;;3.50;;
37459;SDS011;23318;50.966;5.284;2023-04-15T03:28:31;9.65;;;3.80;;
37459;SDS011;23318;50.966;5.284;2023-04-15T03:30:57;6.18;;;2.92;;
37459;SDS011;23318;50.966;5.284;2023-04-15T03:33:23;5.80;;;3.13;;
37459;SDS011;23318;50.966;5.284;2023-04-15T03:35:49;7.60;;;3.38;;
37459;SDS011;23318;50.966;5.284;2023-04-15T03:38:16;7.45;;;3.25;;
37459;SDS011;23318;50.966;5.284;2023-04-15T03:40:42;7.05;;;3.35;;
37459;SDS011;23318;50.966;5.284;2023-04-15T03:43:08;6.97;;;3.25;;
37459;SDS011;23318;50.966;5.284;2023-04-15T03:45:34;6.80;;;3.25;;
37459;SDS011;23318;50.966;5.284;2023-04-15T03:47:59;6.47;;;3.03;;
37459;SDS011;23318;50.966;5.284;2023-04-15T03:50:25;12.82;;;3.28;;
37459;SDS011;23318;50.966;5.284;2023-04-15T03:52:51;9.77;;;3.50;;
37459;SDS011;23318;50.966;5.284;2023-04-15T03:55:17;16.67;;;7.15;;
37459;SDS011;23318;50.966;5.284;2023-04-15T03:57:44;25.00;;;10.77;;
37459;SDS011;23318;50.966;5.284;2023-04-15T04:00:10;23.13;;;9.90;;
37459;SDS011;23318;50.966;5.284;2023-04-15T04:02:36;9.88;;;3.08;;
37459;SDS011;23318;50.966;5.284;2023-04-15T04:05:01;9.00;;;3.22;;
37459;SDS011;23318;50.966;5.284;2023-04-15T04:07:28;8.02;;;3.20;;
37459;SDS011;23318;50.966;5.284;2023-04-15T04:09:55;7.70;;;2.95;;
37459;SDS011;23318;50.966;5.284;2023-04-15T04:12:21;9.13;;;3.33;;
37459;SDS011;23318;50.966;5.284;2023-04-15T04:14:47;6.85;;;3.22;;
37459;SDS011;23318;50.966;5.284;2023-04-15T04:17:13;8.35;;;3.40;;
37459;SDS011;23318;50.966;5.284;2023-04-15T04:19:38;7.78;;;3.42;;
37459;SDS011;23318;50.966;5.284;2023-04-15T04:22:05;9.02;;;3.85;;
37459;SDS011;23318;50.966;5.284;2023-04-15T04:24:30;10.30;;;3.88;;
37459;SDS011;23318;50.966;5.284;2023-04-15T04:26:56;7.65;;;3.47;;
37459;SDS011;23318;50.966;5.284;2023-04-15T04:29:22;10.43;;;3.80;;
37459;SDS011;23318;50.966;5.284;2023-04-15T04:31:48;7.05;;;3.08;;
37459;SDS011;23318;50.966;5.284;2023-04-15T04:34:14;11.98;;;4.22;;
37459;SDS011;23318;50.966;5.284;2023-04-15T04:36:40;16.95;;;4.30;;
37459;SDS011;23318;50.966;5.284;2023-04-15T04:39:06;10.48;;;3.67;;
37459;SDS011;23318;50.966;5.284;2023-04-15T04:41:31;7.32;;;3.65;;
37459;SDS011;23318;50.966;5.284;2023-04-15T04:43:57;9.55;;;3.85;;
37459;SDS011;23318;50.966;5.284;2023-04-15T04:46:23;6.20;;;3.13;;
37459;SDS011;23318;50.966;5.284;2023-04-15T04:48:49;9.05;;;3.40;;
37459;SDS011;23318;50.966;5.284;2023-04-15T04:51:15;7.78;;;3.78;;
37459;SDS011;23318;50.966;5.284;2023-04-15T04:53:40;12.73;;;4.25;;
37459;SDS011;23318;50.966;5.284;2023-04-15T04:56:07;8.95;;;3.53;;
37459;SDS011;23318;50.966;5.284;2023-04-15T04:58:32;11.23;;;3.55;;
37459;SDS011;23318;50.966;5.284;2023-04-15T05:00:58;12.70;;;4.72;;
37459;SDS011;23318;50.966;5.284;2023-04-15T05:03:25;11.82;;;3.45;;
37459;SDS011;23318;50.966;5.284;2023-04-15T05:05:51;12.00;;;4.03;;
37459;SDS011;23318;50.966;5.284;2023-04-15T05:08:17;11.75;;;4.07;;
37459;SDS011;23318;50.966;5.284;2023-04-15T05:10:42;10.93;;;3.75;;
37459;SDS011;23318;50.966;5.284;2023-04-15T05:13:08;11.23;;;3.65;;
37459;SDS011;23318;50.966;5.284;2023-04-15T05:15:34;10.10;;;3.80;;
37459;SDS011;23318;50.966;5.284;2023-04-15T05:18:01;11.90;;;4.35;;
37459;SDS011;23318;50.966;5.284;2023-04-15T05:20:26;10.25;;;3.55;;
37459;SDS011;23318;50.966;5.284;2023-04-15T05:22:52;10.60;;;4.05;;
37459;SDS011;23318;50.966;5.284;2023-04-15T05:25:18;11.15;;;4.30;;
37459;SDS011;23318;50.966;5.284;2023-04-15T05:27:44;13.30;;;3.95;;
37459;SDS011;23318;50.966;5.284;2023-04-15T05:30:10;15.10;;;4.38;;
37459;SDS011;23318;50.966;5.284;2023-04-15T05:32:36;8.93;;;4.05;;
37459;SDS011;23318;50.966;5.284;2023-04-15T05:35:01;10.60;;;4.05;;
37459;SDS011;23318;50.966;5.284;2023-04-15T05:37:27;10.40;;;4.15;;
37459;SDS011;23318;50.966;5.284;2023-04-15T05:39:53;9.18;;;4.30;;
37459;SDS011;23318;50.966;5.284;2023-04-15T05:42:19;8.57;;;3.88;;
37459;SDS011;23318;50.966;5.284;2023-04-15T05:44:44;9.75;;;4.03;;
37459;SDS011;23318;50.966;5.284;2023-04-15T05:47:10;12.13;;;4.57;;
37459;SDS011;23318;50.966;5.284;2023-04-15T05:49:36;15.20;;;5.18;;
37459;SDS011;23318;50.966;5.284;2023-04-15T05:52:02;12.30;;;5.15;;
37459;SDS011;23318;50.966;5.284;2023-04-15T05:54:27;17.65;;;6.00;;
37459;SDS011;23318;50.966;5.284;2023-04-15T05:56:53;17.98;;;5.68;;
37459;SDS011;23318;50.966;5.284;2023-04-15T05:59:20;15.73;;;5.43;;
37459;SDS011;23318;50.966;5.284;2023-04-15T06:01:45;18.85;;;6.07;;
37459;SDS011;23318;50.966;5.284;2023-04-15T06:04:12;18.05;;;5.85;;
37459;SDS011;23318;50.966;5.284;2023-04-15T06:06:37;13.80;;;5.85;;
37459;SDS011;23318;50.966;5.284;2023-04-15T06:09:04;12.77;;;6.13;;
37459;SDS011;23318;50.966;5.284;2023-04-15T06:11:30;11.80;;;6.13;;
37459;SDS011;23318;50.966;5.284;2023-04-15T06:13:56;13.35;;;6.30;;
37459;SDS011;23318;50.966;5.284;2023-04-15T06:16:21;15.10;;;6.55;;
37459;SDS011;23318;50.966;5.284;2023-04-15T06:18:47;17.33;;;7.13;;
37459;SDS011;23318;50.966;5.284;2023-04-15T06:21:13;11.43;;;6.13;;
37459;SDS011;23318;50.966;5.284;2023-04-15T06:23:39;12.10;;;6.35;;
37459;SDS011;23318;50.966;5.284;2023-04-15T06:26:06;19.75;;;7.22;;
37459;SDS011;23318;50.966;5.284;2023-04-15T06:28:32;13.82;;;6.72;;
37459;SDS011;23318;50.966;5.284;2023-04-15T06:30:57;13.65;;;6.63;;
37459;SDS011;23318;50.966;5.284;2023-04-15T06:33:23;13.38;;;6.97;;
37459;SDS011;23318;50.966;5.284;2023-04-15T06:35:49;11.52;;;7.38;;
37459;SDS011;23318;50.966;5.284;2023-04-15T06:38:14;13.85;;;6.95;;
37459;SDS011;23318;50.966;5.284;2023-04-15T06:40:40;16.17;;;7.20;;
37459;SDS011;23318;50.966;5.284;2023-04-15T06:43:06;9.13;;;6.43;;
37459;SDS011;23318;50.966;5.284;2023-04-15T06:45:33;17.98;;;6.90;;
37459;SDS011;23318;50.966;5.284;2023-04-15T06:47:58;15.70;;;6.75;;
37459;SDS011;23318;50.966;5.284;2023-04-15T06:50:24;23.73;;;8.15;;
37459;SDS011;23318;50.966;5.284;2023-04-15T06:52:50;11.70;;;7.25;;
37459;SDS011;23318;50.966;5.284;2023-04-15T06:55:16;12.30;;;6.93;;
37459;SDS011;23318;50.966;5.284;2023-04-15T06:57:41;12.95;;;7.15;;
37459;SDS011;23318;50.966;5.284;2023-04-15T07:00:07;14.90;;;6.63;;
37459;SDS011;23318;50.966;5.284;2023-04-15T07:02:35;9.63;;;6.47;;
37459;SDS011;23318;50.966;5.284;2023-04-15T07:05:01;15.95;;;7.22;;
37459;SDS011;23318;50.966;5.284;2023-04-15T07:07:26;13.02;;;6.88;;
37459;SDS011;23318;50.966;5.284;2023-04-15T07:09:52;16.27;;;7.43;;
37459;SDS011;23318;50.966;5.284;2023-04-15T07:12:18;15.57;;;7.63;;
37459;SDS011;23318;50.966;5.284;2023-04-15T07:14:44;13.20;;;7.60;;
37459;SDS011;23318;50.966;5.284;2023-04-15T07:17:09;15.52;;;7.72;;
37459;SDS011;23318;50.966;5.284;2023-04-15T07:19:36;14.65;;;7.63;;
37459;SDS011;23318;50.966;5.284;2023-04-15T07:22:01;13.10;;;7.50;;
37459;SDS011;23318;50.966;5.284;2023-04-15T07:24:28;15.88;;;6.80;;
37459;SDS011;23318;50.966;5.284;2023-04-15T07:26:54;11.75;;;6.93;;
37459;SDS011;23318;50.966;5.284;2023-04-15T07:29:21;14.60;;;7.38;;
37459;SDS011;23318;50.966;5.284;2023-04-15T07:31:47;12.25;;;6.45;;
37459;SDS011;23318;50.966;5.284;2023-04-15T07:34:13;12.32;;;6.63;;
37459;SDS011;23318;50.966;5.284;2023-04-15T07:36:39;14.43;;;6.45;;
37459;SDS011;23318;50.966;5.284;2023-04-15T07:39:04;10.68;;;6.57;;
37459;SDS011;23318;50.966;5.284;2023-04-15T07:41:30;13.43;;;6.13;;
37459;SDS011;23318;50.966;5.284;2023-04-15T07:43:56;15.45;;;6.10;;
37459;SDS011;23318;50.966;5.284;2023-04-15T07:46:21;13.68;;;5.93;;
37459;SDS011;23318;50.966;5.284;2023-04-15T07:48:48;12.43;;;6.28;;
37459;SDS011;23318;50.966;5.284;2023-04-15T07:51:15;9.95;;;6.63;;
37459;SDS011;23318;50.966;5.284;2023-04-15T07:53:41;10.55;;;6.13;;
37459;SDS011;23318;50.966;5.284;2023-04-15T07:56:08;12.02;;;6.30;;
37459;SDS011;23318;50.966;5.284;2023-04-15T07:58:34;14.38;;;7.18;;
37459;SDS011;23318;50.966;5.284;2023-04-15T08:01:00;12.05;;;6.93;;
37459;SDS011;23318;50.966;5.284;2023-04-15T08:03:25;12.13;;;7.78;;
37459;SDS011;23318;50.966;5.284;2023-04-15T08:05:52;15.50;;;7.70;;
37459;SDS011;23318;50.966;5.284;2023-04-15T08:08:18;16.85;;;8.80;;
37459;SDS011;23318;50.966;5.284;2023-04-15T08:10:44;14.15;;;7.88;;
37459;SDS011;23318;50.966;5.284;2023-04-15T08:13:09;14.63;;;8.98;;
37459;SDS011;23318;50.966;5.284;2023-04-15T08:15:35;19.80;;;9.55;;
37459;SDS011;23318;50.966;5.284;2023-04-15T08:18:02;15.20;;;9.45;;
37459;SDS011;23318;50.966;5.284;2023-04-15T08:20:27;19.30;;;10.25;;
37459;SDS011;23318;50.966;5.284;2023-04-15T08:22:53;15.95;;;10.82;;
37459;SDS011;23318;50.966;5.284;2023-04-15T08:25:20;17.73;;;11.00;;
37459;SDS011;23318;50.966;5.284;2023-04-15T08:27:45;15.40;;;10.32;;
37459;SDS011;23318;50.966;5.284;2023-04-15T08:30:11;14.45;;;9.50;;
37459;SDS011;23318;50.966;5.284;2023-04-15T08:32:38;14.00;;;8.68;;
37459;SDS011;23318;50.966;5.284;2023-04-15T08:35:03;12.77;;;8.20;;
37459;SDS011;23318;50.966;5.284;2023-04-15T08:37:29;15.18;;;8.93;;
37459;SDS011;23318;50.966;5.284;2023-04-15T08:39:55;13.55;;;8.93;;
37459;SDS011;23318;50.966;5.284;2023-04-15T08:42:29;15.65;;;8.20;;
37459;SDS011;23318;50.966;5.284;2023-04-15T08:44:58;12.38;;;8.35;;
37459;SDS011;23318;50.966;5.284;2023-04-15T08:47:24;15.00;;;8.45;;
37459;SDS011;23318;50.966;5.284;2023-04-15T08:49:53;13.48;;;7.75;;
37459;SDS011;23318;50.966;5.284;2023-04-15T08:52:23;10.27;;;7.95;;
37459;SDS011;23318;50.966;5.284;2023-04-15T08:54:50;14.30;;;7.70;;
37459;SDS011;23318;50.966;5.284;2023-04-15T08:57:22;11.18;;;7.38;;
37459;SDS011;23318;50.966;5.284;2023-04-15T08:59:51;13.05;;;7.70;;
37459;SDS011;23318;50.966;5.284;2023-04-15T09:02:17;9.95;;;7.43;;
37459;SDS011;23318;50.966;5.284;2023-04-15T09:04:43;12.80;;;7.53;;
37459;SDS011;23318;50.966;5.284;2023-04-15T09:07:09;9.15;;;7.47;;
37459;SDS011;23318;50.966;5.284;2023-04-15T09:09:34;10.90;;;7.22;;
37459;SDS011;23318;50.966;5.284;2023-04-15T09:12:01;12.75;;;7.30;;
37459;SDS011;23318;50.966;5.284;2023-04-15T09:14:27;8.95;;;6.78;;
37459;SDS011;23318;50.966;5.284;2023-04-15T09:16:59;8.98;;;6.30;;
37459;SDS011;23318;50.966;5.284;2023-04-15T09:19:27;8.57;;;6.68;;
37459;SDS011;23318;50.966;5.284;2023-04-15T09:21:54;9.10;;;6.60;;
37459;SDS011;23318;50.966;5.284;2023-04-15T09:24:21;9.20;;;6.28;;
37459;SDS011;23318;50.966;5.284;2023-04-15T09:26:47;11.00;;;6.88;;
37459;SDS011;23318;50.966;5.284;2023-04-15T09:29:18;9.50;;;6.63;;
37459;SDS011;23318;50.966;5.284;2023-04-15T09:31:44;10.07;;;7.13;;
37459;SDS011;23318;50.966;5.284;2023-04-15T09:34:10;11.65;;;7.57;;
37459;SDS011;23318;50.966;5.284;2023-04-15T09:36:55;11.43;;;7.40;;
37459;SDS011;23318;50.966;5.284;2023-04-15T09:39:21;12.68;;;5.65;;
37459;SDS011;23318;50.966;5.284;2023-04-15T09:42:03;6.88;;;5.55;;
37459;SDS011;23318;50.966;5.284;2023-04-15T09:44:29;9.45;;;6.15;;
37459;SDS011;23318;50.966;5.284;2023-04-15T09:46:55;8.65;;;6.20;;
37459;SDS011;23318;50.966;5.284;2023-04-15T09:49:21;9.60;;;5.90;;
37459;SDS011;23318;50.966;5.284;2023-04-15T09:51:47;8.55;;;5.80;;
37459;SDS011;23318;50.966;5.284;2023-04-15T09:54:16;11.50;;;6.45;;
37459;SDS011;23318;50.966;5.284;2023-04-15T09:56:44;9.50;;;4.75;;
37459;SDS011;23318;50.966;5.284;2023-04-15T09:59:11;5.38;;;4.20;;
37459;SDS011;23318;50.966;5.284;2023-04-15T10:01:37;6.55;;;5.15;;
37459;SDS011;23318;50.966;5.284;2023-04-15T10:04:03;8.15;;;5.07;;
37459;SDS011;23318;50.966;5.284;2023-04-15T10:06:30;8.02;;;4.47;;
37459;SDS011;23318;50.966;5.284;2023-04-15T10:08:57;5.75;;;3.78;;
37459;SDS011;23318;50.966;5.284;2023-04-15T10:11:23;4.93;;;3.65;;
37459;SDS011;23318;50.966;5.284;2023-04-15T10:13:52;7.13;;;3.33;;
37459;SDS011;23318;50.966;5.284;2023-04-15T10:16:19;6.13;;;3.80;;
37459;SDS011;23318;50.966;5.284;2023-04-15T10:18:47;4.88;;;3.55;;
37459;SDS011;23318;50.966;5.284;2023-04-15T10:21:18;9.43;;;3.80;;
37459;SDS011;23318;50.966;5.284;2023-04-15T10:23:46;7.05;;;3.47;;
37459;SDS011;23318;50.966;5.284;2023-04-15T10:26:12;3.17;;;2.88;;
37459;SDS011;23318;50.966;5.284;2023-04-15T10:28:43;5.43;;;2.58;;
37459;SDS011;23318;50.966;5.284;2023-04-15T10:31:11;4.80;;;2.05;;
37459;SDS011;23318;50.966;5.284;2023-04-15T10:33:40;3.45;;;1.67;;
37459;SDS011;23318;50.966;5.284;2023-04-15T10:36:08;4.75;;;2.10;;
37459;SDS011;23318;50.966;5.284;2023-04-15T10:38:39;4.47;;;2.35;;
37459;SDS011;23318;50.966;5.284;2023-04-15T10:43:38;5.68;;;1.83;;
37459;SDS011;23318;50.966;5.284;2023-04-15T10:46:09;4.65;;;2.35;;
37459;SDS011;23318;50.966;5.284;2023-04-15T10:48:35;4.72;;;2.45;;
37459;SDS011;23318;50.966;5.284;2023-04-15T10:51:00;5.85;;;2.60;;
37459;SDS011;23318;50.966;5.284;2023-04-15T10:53:29;3.83;;;2.67;;
37459;SDS011;23318;50.966;5.284;2023-04-15T10:55:56;4.05;;;1.92;;
37459;SDS011;23318;50.966;5.284;2023-04-15T10:58:23;6.72;;;2.05;;
37459;SDS011;23318;50.966;5.284;2023-04-15T11:00:50;5.38;;;2.25;;
37459;SDS011;23318;50.966;5.284;2023-04-15T11:03:20;4.80;;;2.55;;
37459;SDS011;23318;50.966;5.284;2023-04-15T11:06:05;4.45;;;2.60;;
37459;SDS011;23318;50.966;5.284;2023-04-15T11:08:53;5.13;;;2.20;;
37459;SDS011;23318;50.966;5.284;2023-04-15T11:11:17;3.40;;;2.20;;
37459;SDS011;23318;50.966;5.284;2023-04-15T11:13:47;7.70;;;2.45;;
37459;SDS011;23318;50.966;5.284;2023-04-15T11:16:13;4.53;;;2.90;;
37459;SDS011;23318;50.966;5.284;2023-04-15T11:18:39;5.95;;;3.20;;
37459;SDS011;23318;50.966;5.284;2023-04-15T11:21:06;5.22;;;2.25;;
37459;SDS011;23318;50.966;5.284;2023-04-15T11:25:59;4.93;;;3.13;;
37459;SDS011;23318;50.966;5.284;2023-04-15T11:28:27;2.97;;;2.35;;
37459;SDS011;23318;50.966;5.284;2023-04-15T11:30:53;4.50;;;2.67;;
37459;SDS011;23318;50.966;5.284;2023-04-15T11:33:19;3.42;;;2.30;;
37459;SDS011;23318;50.966;5.284;2023-04-15T11:35:46;1.90;;;1.80;;
37459;SDS011;23318;50.966;5.284;2023-04-15T11:38:12;2.17;;;1.33;;
37459;SDS011;23318;50.966;5.284;2023-04-15T11:40:39;2.42;;;1.40;;
37459;SDS011;23318;50.966;5.284;2023-04-15T11:43:09;1.15;;;1.10;;
37459;SDS011;23318;50.966;5.284;2023-04-15T11:45:36;3.22;;;1.42;;
37459;SDS011;23318;50.966;5.284;2023-04-15T11:50:31;3.97;;;1.92;;
37459;SDS011;23318;50.966;5.284;2023-04-15T11:53:02;1.45;;;1.15;;
37459;SDS011;23318;50.966;5.284;2023-04-15T11:55:29;2.38;;;1.63;;
37459;SDS011;23318;50.966;5.284;2023-04-15T11:58:07;2.83;;;1.50;;
37459;SDS011;23318;50.966;5.284;2023-04-15T12:00:37;2.47;;;1.52;;
37459;SDS011;23318;50.966;5.284;2023-04-15T12:03:15;3.10;;;1.73;;
37459;SDS011;23318;50.966;5.284;2023-04-15T12:08:46;2.08;;;1.83;;
37459;SDS011;23318;50.966;5.284;2023-04-15T12:13:56;4.28;;;1.40;;
37459;SDS011;23318;50.966;5.284;2023-04-15T12:16:26;3.42;;;2.15;;
37459;SDS011;23318;50.966;5.284;2023-04-15T12:18:53;1.98;;;1.70;;
37459;SDS011;23318;50.966;5.284;2023-04-15T12:21:21;2.00;;;1.80;;
37459;SDS011;23318;50.966;5.284;2023-04-15T12:23:48;1.88;;;1.70;;
37459;SDS011;23318;50.966;5.284;2023-04-15T12:26:14;1.83;;;1.70;;
37459;SDS011;23318;50.966;5.284;2023-04-15T12:28:41;2.63;;;2.28;;
37459;SDS011;23318;50.966;5.284;2023-04-15T12:31:07;3.58;;;1.92;;
37459;SDS011;23318;50.966;5.284;2023-04-15T12:33:36;1.98;;;1.40;;
37459;SDS011;23318;50.966;5.284;2023-04-15T12:36:02;3.85;;;1.50;;
37459;SDS011;23318;50.966;5.284;2023-04-15T12:38:28;2.78;;;1.20;;
37459;SDS011;23318;50.966;5.284;2023-04-15T12:40:55;2.05;;;1.40;;
37459;SDS011;23318;50.966;5.284;2023-04-15T12:43:22;2.90;;;1.42;;
37459;SDS011;23318;50.966;5.284;2023-04-15T12:45:47;3.38;;;1.38;;
37459;SDS011;23318;50.966;5.284;2023-04-15T12:48:13;2.08;;;1.20;;
37459;SDS011;23318;50.966;5.284;2023-04-15T12:50:40;1.90;;;1.60;;
37459;SDS011;23318;50.966;5.284;2023-04-15T12:53:06;2.05;;;1.40;;
37459;SDS011;23318;50.966;5.284;2023-04-15T12:55:31;2.22;;;1.33;;
37459;SDS011;23318;50.966;5.284;2023-04-15T12:57:57;0.80;;;0.80;;
37459;SDS011;23318;50.966;5.284;2023-04-15T13:00:23;2.25;;;1.50;;
37459;SDS011;23318;50.966;5.284;2023-04-15T13:02:48;1.45;;;1.20;;
37459;SDS011;23318;50.966;5.284;2023-04-15T13:05:14;2.15;;;1.45;;
37459;SDS011;23318;50.966;5.284;2023-04-15T13:07:43;3.15;;;1.13;;
37459;SDS011;23318;50.966;5.284;2023-04-15T13:10:08;2.75;;;1.00;;
37459;SDS011;23318;50.966;5.284;2023-04-15T13:12:34;2.88;;;1.00;;
37459;SDS011;23318;50.966;5.284;2023-04-15T13:15:01;2.92;;;1.30;;
37459;SDS011;23318;50.966;5.284;2023-04-15T13:17:27;4.25;;;1.48;;
37459;SDS011;23318;50.966;5.284;2023-04-15T13:19:52;2.88;;;1.15;;
37459;SDS011;23318;50.966;5.284;2023-04-15T13:22:18;1.42;;;1.30;;
37459;SDS011;23318;50.966;5.284;2023-04-15T13:24:44;3.03;;;1.45;;
37459;SDS011;23318;50.966;5.284;2023-04-15T13:27:09;5.57;;;1.80;;
37459;SDS011;23318;50.966;5.284;2023-04-15T13:29:35;1.85;;;1.50;;
37459;SDS011;23318;50.966;5.284;2023-04-15T13:32:00;3.88;;;2.05;;
37459;SDS011;23318;50.966;5.284;2023-04-15T13:34:26;3.20;;;1.50;;
37459;SDS011;23318;50.966;5.284;2023-04-15T13:36:53;1.95;;;1.30;;
37459;SDS011;23318;50.966;5.284;2023-04-15T13:39:19;1.33;;;1.13;;
37459;SDS011;23318;50.966;5.284;2023-04-15T13:41:45;2.65;;;1.20;;
37459;SDS011;23318;50.966;5.284;2023-04-15T13:44:12;2.15;;;1.30;;
37459;SDS011;23318;50.966;5.284;2023-04-15T13:46:38;1.38;;;1.15;;
37459;SDS011;23318;50.966;5.284;2023-04-15T13:49:06;2.20;;;1.30;;
37459;SDS011;23318;50.966;5.284;2023-04-15T13:51:32;2.80;;;1.45;;
37459;SDS011;23318;50.966;5.284;2023-04-15T13:54:00;3.08;;;1.17;;
37459;SDS011;23318;50.966;5.284;2023-04-15T13:56:25;2.08;;;1.10;;
37459;SDS011;23318;50.966;5.284;2023-04-15T13:58:51;2.63;;;1.48;;
37459;SDS011;23318;50.966;5.284;2023-04-15T14:01:18;3.45;;;1.35;;
37459;SDS011;23318;50.966;5.284;2023-04-15T14:03:44;1.33;;;1.05;;
37459;SDS011;23318;50.966;5.284;2023-04-15T14:06:10;1.90;;;1.58;;
37459;SDS011;23318;50.966;5.284;2023-04-15T14:08:35;2.10;;;1.30;;
37459;SDS011;23318;50.966;5.284;2023-04-15T14:11:01;1.33;;;0.95;;
37459;SDS011;23318;50.966;5.284;2023-04-15T14:13:27;2.40;;;0.95;;
37459;SDS011;23318;50.966;5.284;2023-04-15T14:15:53;3.60;;;1.17;;
37459;SDS011;23318;50.966;5.284;2023-04-15T14:18:18;1.75;;;1.00;;
37459;SDS011;23318;50.966;5.284;2023-04-15T14:20:45;1.10;;;1.00;;
37459;SDS011;23318;50.966;5.284;2023-04-15T14:23:10;1.27;;;0.90;;
37459;SDS011;23318;50.966;5.284;2023-04-15T14:25:36;3.20;;;1.63;;
37459;SDS011;23318;50.966;5.284;2023-04-15T14:28:03;2.30;;;1.50;;
37459;SDS011;23318;50.966;5.284;2023-04-15T14:30:28;2.25;;;1.35;;
37459;SDS011;23318;50.966;5.284;2023-04-15T14:32:54;3.10;;;1.52;;
37459;SDS011;23318;50.966;5.284;2023-04-15T14:35:20;1.65;;;1.55;;
37459;SDS011;23318;50.966;5.284;2023-04-15T14:37:46;2.67;;;1.25;;
37459;SDS011;23318;50.966;5.284;2023-04-15T14:40:11;1.30;;;1.20;;
37459;SDS011;23318;50.966;5.284;2023-04-15T14:42:37;2.38;;;1.58;;
37459;SDS011;23318;50.966;5.284;2023-04-15T14:45:03;2.38;;;1.23;;
37459;SDS011;23318;50.966;5.284;2023-04-15T14:47:29;2.08;;;1.27;;
37459;SDS011;23318;50.966;5.284;2023-04-15T14:49:55;2.45;;;1.40;;
37459;SDS011;23318;50.966;5.284;2023-04-15T14:52:20;1.95;;;1.40;;